createdAt,value
2018-12-11T00:06:22.953Z,6.87
2018-12-11T00:16:27.157Z,6.60
2018-12-11T00:26:32.251Z,7.33
2018-12-11T00:36:36.417Z,6.87
2018-12-11T00:46:40.491Z,6.20
2018-12-11T00:56:44.677Z,6.17
2018-12-11T01:06:49.465Z,6.73
2018-12-11T01:16:53.633Z,6.97
2018-12-11T01:26:57.859Z,7.13
2018-12-11T01:37:01.922Z,6.47
2018-12-11T01:47:06.045Z,6.57
2018-12-11T01:57:10.150Z,6.87
2018-12-11T02:07:14.223Z,7.23
2018-12-11T02:17:18.303Z,6.47
2018-12-11T02:27:22.619Z,6.23
2018-12-11T02:37:26.904Z,6.80
2018-12-11T02:47:31.004Z,6.83
2018-12-11T02:57:35.137Z,10.37
2018-12-11T03:07:39.239Z,9.80
2018-12-11T03:17:43.366Z,9.63
2018-12-11T03:27:47.477Z,7.57
2018-12-11T03:37:51.616Z,7.90
2018-12-11T03:47:55.771Z,7.33
2018-12-11T03:57:59.924Z,7.73
2018-12-11T04:08:04.183Z,7.27
2018-12-11T04:18:08.323Z,8.20
2018-12-11T04:28:12.483Z,8.07
2018-12-11T04:38:16.843Z,8.30
2018-12-11T04:48:20.934Z,8.07
2018-12-11T04:58:25.055Z,7.70
2018-12-11T05:08:29.146Z,9.07
2018-12-11T05:18:34.309Z,8.00
2018-12-11T05:28:38.397Z,7.57
2018-12-11T05:38:42.486Z,8.80
2018-12-11T05:48:46.647Z,7.87
2018-12-11T05:58:50.777Z,8.77
2018-12-11T06:08:54.879Z,7.87
2018-12-11T06:18:59.217Z,8.10
2018-12-11T06:29:03.920Z,9.27
2018-12-11T06:39:08.104Z,9.00
2018-12-11T06:49:12.319Z,9.67
2018-12-11T06:59:16.401Z,8.53
2018-12-11T07:09:20.518Z,9.90
2018-12-11T07:19:24.781Z,9.00
2018-12-11T07:29:29.008Z,9.23
2018-12-11T07:39:33.201Z,9.53
2018-12-11T07:49:37.555Z,9.83
2018-12-11T07:59:41.804Z,10.77
2018-12-11T08:09:46.075Z,10.20
2018-12-11T08:19:50.197Z,11.03
2018-12-11T08:29:54.403Z,10.60
2018-12-11T08:39:58.553Z,9.87
2018-12-11T08:50:02.713Z,10.03
2018-12-11T09:00:08.311Z,10.50
2018-12-11T09:10:12.463Z,9.77
2018-12-11T09:20:16.727Z,9.50
2018-12-11T09:30:21.074Z,10.00
2018-12-11T09:40:25.154Z,9.07
2018-12-11T09:50:29.287Z,9.77
2018-12-11T10:00:34.147Z,9.90
2018-12-11T10:10:38.411Z,9.17
2018-12-11T10:20:42.601Z,9.03
2018-12-11T10:30:48.131Z,8.53
2018-12-11T10:40:52.291Z,5.93
2018-12-11T10:50:56.661Z,6.90
2018-12-11T11:01:06.214Z,6.17
2018-12-11T11:11:11.621Z,5.10
2018-12-11T11:21:16.026Z,13.87
2018-12-11T11:31:20.101Z,5.60
2018-12-11T11:41:24.403Z,5.83
2018-12-11T11:51:28.914Z,6.20
2018-12-11T12:01:33.231Z,6.63
2018-12-11T12:11:37.502Z,7.20
2018-12-11T12:21:41.656Z,6.30
2018-12-11T12:31:46.884Z,7.60
2018-12-11T12:41:51.001Z,6.90
2018-12-11T12:51:55.146Z,5.93
2018-12-11T13:01:59.375Z,5.17
2018-12-11T13:12:03.606Z,6.20
2018-12-11T13:22:07.847Z,5.93
2018-12-11T13:32:11.986Z,4.50
2018-12-11T13:42:16.327Z,4.90
2018-12-11T13:52:20.712Z,5.30
2018-12-11T14:02:24.867Z,5.73
2018-12-11T14:12:29.072Z,5.80
2018-12-11T14:22:34.156Z,7.60
2018-12-11T14:32:38.552Z,7.07
2018-12-11T14:42:42.808Z,7.20
2018-12-11T14:52:47.143Z,7.80
2018-12-11T15:02:51.828Z,6.60
2018-12-11T15:12:56.198Z,5.87
2018-12-11T15:23:00.448Z,8.10
2018-12-11T15:33:04.763Z,7.97
2018-12-11T15:43:09.004Z,10.37
2018-12-11T15:53:13.295Z,9.80
2018-12-11T16:03:17.499Z,11.30
2018-12-11T16:13:22.177Z,13.07
2018-12-11T16:23:26.558Z,13.17
2018-12-11T16:33:30.797Z,13.77
2018-12-11T16:43:34.929Z,13.67
2018-12-11T16:53:39.194Z,14.03
2018-12-11T17:03:43.554Z,22.50
2018-12-11T17:13:47.904Z,67.83
2018-12-11T17:23:52.125Z,12.60
2018-12-11T17:33:56.320Z,13.37
2018-12-11T17:44:00.579Z,13.67
2018-12-11T17:54:04.724Z,15.10
2018-12-11T18:04:08.865Z,16.27
2018-12-11T18:14:13.035Z,30.07
2018-12-11T18:24:17.137Z,27.00
2018-12-11T18:56:41.249Z,26.47
2018-12-11T19:06:45.364Z,26.97
2018-12-11T19:16:49.859Z,28.57
2018-12-11T19:26:54.035Z,28.63
2018-12-11T19:36:59.178Z,29.60
2018-12-11T19:47:03.311Z,31.43
2018-12-11T19:57:07.373Z,31.80
2018-12-11T20:07:11.576Z,32.60
2018-12-11T20:17:15.655Z,32.43
2018-12-11T20:27:19.904Z,35.57
2018-12-11T20:37:23.941Z,40.67
2018-12-11T20:47:28.375Z,35.57
2018-12-11T20:57:33.780Z,35.67
2018-12-11T21:07:39.004Z,36.90
2018-12-11T21:17:43.130Z,30.27
2018-12-11T21:27:48.083Z,30.53
2018-12-11T21:37:52.318Z,33.63
2018-12-11T21:47:56.429Z,30.13
2018-12-11T21:58:00.591Z,30.33
2018-12-11T22:08:04.780Z,33.77
2018-12-11T22:18:08.909Z,34.37
2018-12-11T22:28:13.058Z,34.40
2018-12-11T22:38:17.132Z,31.87
2018-12-11T22:48:21.189Z,31.83
2018-12-11T22:58:25.289Z,32.70
2018-12-11T23:08:29.394Z,32.80
2018-12-11T23:18:33.521Z,31.53
2018-12-11T23:28:37.603Z,31.43
2018-12-11T23:38:41.889Z,28.40
2018-12-11T23:48:45.981Z,29.77
2018-12-11T23:58:50.139Z,30.23
